Impacts TAF Board INFO
FOR SITUATIONAL AWARENESS. NOT TO BE USED FOR FLIGHT PLANNING PURPOSES.
IDs:

KCLE - Cleveland/Hopkins In, OH, US

Issued at 1935 UTC 16 Aug 2018
Updated at 2018 UTC 16 Aug 2018
Potential Impact None Slight Moderate High
Time2010Z 16/21Z 16/22Z 16/23Z 17/00Z 17/01Z 17/02Z 17/03Z 17/04Z 17/05Z 17/06Z 17/07Z 17/08Z 17/09Z>>
Type OBS PRVL
  [TEMP]  
PRVL
  [TEMP]  
PRVL
  [TEMP]  
PRVL PRVL PRVL PRVL PRVL PRVL PRVL PRVL PRVL PRVL
VIS 10 >6
  [2]  
>6
  [2]  
>6
  [2]  
>6 >6 >6 >6 >6 >6 >6 >6 >6 5
CIG 26 40
  [20]  
40
  [20]  
40
  [20]  
20 20 20 20 20 20 20 20 20 9
Cover OVC OVC
  [OVC]  
OVC
  [OVC]  
OVC
  [OVC]  
OVC OVC OVC OVC OVC OVC OVC OVC OVC OVC
FltCat MVFR VFR
  [IFR]  
VFR
  [IFR]  
VFR
  [IFR]  
MVFR MVFR MVFR MVFR MVFR MVFR MVFR MVFR MVFR IFR
WX -- VCSH
  [-RA BR]  
VCSH
  [-RA BR]  
VCSH
  [-RA BR]  
VCSH VCSH VCSH VCSH VCSH VCSH VCSH VCSH VCSH BR
WDir 190 190
[190]
190
[190]
190
[190]
200 200 200 200 200 200 200 200 200 210
WSpd 9 11
  [11]  
11
  [11]  
11
  [11]  
12 12 12 12 12 12 12 12 12 10
WGst -- 17
  [17]  
17
  [17]  
17
  [17]  
-- -- -- -- -- -- -- -- -- --

Raw TAF
KCLE 161935Z 1620/1724 19011G17KT P6SM VCSH OVC040
  TEMPO 1620/1624 2SM -RA BR OVC020
  FM170000 20012KT P6SM VCSH OVC020
  FM170900 21010KT 5SM BR OVC009
  FM171500 22010KT P6SM OVC015


Raw METAR
KCLE 162010Z 19009KT 10SM FEW021 BKN026 OVC050 24/21 A3003 RMK AO2 T02440211 $
KCLE 161951Z 18008KT 10SM FEW010 SCT031 OVC048 24/22 A3005 RMK AO2 RAB20E47 SLP168 P0001 T02440222 $
KCLE 161940Z 19010G17KT 5SM -RA BR FEW011 SCT020 OVC048 23/22 A3005 RMK AO2 RAB20 P0001 T02330217 $
KCLE 161931Z 20010G19KT 2SM -RA BR FEW011 BKN030 OVC048 23/22 A3005 RMK AO2 SFC VIS 2 1/2 RAB20 P0001 T02330217 $
KCLE 161924Z 21012G20KT 3SM -RA SCT018 BKN025 OVC033 24/21 A3006 RMK AO2 RAB20 P0000 T02390211 $
KCLE 161851Z 18013KT 10SM BKN035 OVC050 27/20 A3005 RMK AO2 SLP169 T02720200 $
KCLE 161825Z 20017G23KT 10SM BKN032 OVC200 28/20 A3005 RMK AO2 T02780200 $
KCLE 161751Z 20015G22KT 10SM BKN029 BKN120 OVC200 27/20 A3006 RMK AO2 SLP173 T02720200 10272 20228 58005 $

METAR Board
Radar Display
Forecast Discussion

FOR SITUATIONAL AWARENESS. NOT TO BE USED FOR FLIGHT PLANNING PURPOSES.